createdAt,value
2022-09-23T00:09:24.683Z,18.72
2022-09-23T00:19:31.071Z,18.68
2022-09-23T00:29:37.166Z,18.66
2022-09-23T00:39:43.260Z,18.66
2022-09-23T00:49:49.577Z,18.63
2022-09-23T00:59:55.892Z,18.62
2022-09-23T01:10:02.528Z,18.62
2022-09-23T01:20:09.779Z,18.54
2022-09-23T01:30:15.506Z,18.48
2022-09-23T01:40:23.552Z,18.46
2022-09-23T01:50:29.737Z,18.44
2022-09-23T02:00:35.659Z,18.44
2022-09-23T02:10:42.193Z,18.28
2022-09-23T02:20:48.539Z,18.25
2022-09-23T02:30:54.517Z,18.17
2022-09-23T02:41:00.380Z,18.09
2022-09-23T02:51:06.424Z,18.09
2022-09-23T03:01:12.328Z,18.05
2022-09-23T03:11:19.348Z,17.99
2022-09-23T03:21:24.653Z,17.94
2022-09-23T03:31:33.090Z,17.88
2022-09-23T03:41:39.498Z,17.82
2022-09-23T03:51:46.877Z,17.82
2022-09-23T04:01:52.404Z,17.76
2022-09-23T04:11:59.467Z,17.73
2022-09-23T04:22:04.596Z,17.73
2022-09-23T04:32:11.441Z,17.71
2022-09-23T04:42:16.904Z,17.71
2022-09-23T04:52:24.900Z,17.71
2022-09-23T05:02:30.647Z,17.64
2022-09-23T05:12:37.119Z,17.88
2022-09-23T05:22:43.393Z,17.94
2022-09-23T05:32:49.989Z,17.94
2022-09-23T05:42:57.035Z,17.96
2022-09-23T05:53:03.627Z,18.00
2022-09-23T06:03:09.439Z,18.03
2022-09-23T06:13:16.585Z,18.12
2022-09-23T06:23:26.289Z,18.18
2022-09-23T06:33:37.208Z,18.23
2022-09-23T06:43:43.549Z,18.23
2022-09-23T06:53:52.447Z,18.23
2022-09-23T07:03:59.372Z,18.36
2022-09-23T07:14:07.601Z,18.42
2022-09-23T07:24:13.522Z,18.55
2022-09-23T07:34:19.746Z,18.62
2022-09-23T07:44:25.459Z,18.62
2022-09-23T07:54:32.663Z,18.75
2022-09-23T08:04:38.498Z,18.85
2022-09-23T08:14:46.846Z,19.20
2022-09-23T08:24:55.028Z,19.30
2022-09-23T08:35:02.223Z,19.30
2022-09-23T08:45:08.706Z,19.53
2022-09-23T08:55:14.738Z,19.53
2022-09-23T09:05:20.917Z,19.75
2022-09-23T09:15:27.406Z,19.86
2022-09-23T09:25:34.368Z,20.00
2022-09-23T09:35:41.379Z,20.18
2022-09-23T09:45:47.150Z,20.18
2022-09-23T09:55:55.204Z,20.53
2022-09-23T10:06:01.311Z,20.77
2022-09-23T10:16:09.121Z,20.96
2022-09-23T10:26:14.755Z,20.96
2022-09-23T10:36:20.368Z,21.45
2022-09-23T10:46:26.110Z,21.45
2022-09-23T10:56:31.678Z,21.78
2022-09-23T11:06:37.901Z,22.75
2022-09-23T11:16:44.644Z,23.30
2022-09-23T11:26:51.507Z,23.80
2022-09-23T11:36:57.825Z,24.27
2022-09-23T11:47:03.823Z,24.65
2022-09-23T11:57:10.387Z,24.53
2022-09-23T12:07:16.509Z,24.38
2022-09-23T12:17:23.032Z,24.69
2022-09-23T12:27:29.315Z,25.01
2022-09-23T12:37:35.269Z,24.82
2022-09-23T12:47:41.353Z,25.09
2022-09-23T12:57:47.791Z,25.34
2022-09-23T13:07:54.370Z,25.80
2022-09-23T13:18:00.428Z,26.48
2022-09-23T13:28:06.643Z,27.03
2022-09-23T13:38:13.031Z,26.99
2022-09-23T13:48:18.727Z,26.31
2022-09-23T13:58:24.948Z,25.71
2022-09-23T14:08:31.404Z,25.16
2022-09-23T14:18:37.133Z,24.97
2022-09-23T14:28:43.491Z,24.76
2022-09-23T14:38:49.479Z,24.57
2022-09-23T14:48:55.164Z,24.30
2022-09-23T14:59:00.929Z,23.94
2022-09-23T15:09:07.111Z,23.66
2022-09-23T15:19:13.276Z,23.34
2022-09-23T15:29:19.059Z,23.19
2022-09-23T15:39:35.459Z,22.96
2022-09-23T15:49:36.089Z,22.88
2022-09-23T15:59:42.135Z,22.71
2022-09-23T16:09:48.366Z,22.61
2022-09-23T16:19:54.381Z,22.49
2022-09-23T16:29:59.601Z,22.25
2022-09-23T16:40:05.279Z,22.11
2022-09-23T16:50:10.292Z,22.11
2022-09-23T17:01:46.255Z,21.75
2022-09-23T17:11:51.233Z,21.75
2022-09-23T17:21:56.727Z,21.33
2022-09-23T17:32:02.436Z,21.18
2022-09-23T17:42:07.894Z,21.18
2022-09-23T17:52:13.573Z,20.94
2022-09-23T18:02:19.240Z,20.75
2022-09-23T18:12:24.720Z,20.60
2022-09-23T18:22:29.686Z,20.49
2022-09-23T18:32:35.105Z,20.49
2022-09-23T18:42:40.519Z,20.34
2022-09-23T18:52:46.036Z,20.53
2022-09-23T19:02:51.750Z,20.53
2022-09-23T19:12:57.079Z,20.54
2022-09-23T19:23:02.882Z,20.50
2022-09-23T19:33:08.083Z,20.49
2022-09-23T19:43:13.455Z,20.49
2022-09-23T19:53:19.090Z,20.25
2022-09-23T20:03:24.226Z,20.25
2022-09-23T20:13:29.684Z,20.04
2022-09-23T20:23:35.158Z,20.05
2022-09-23T20:33:42.060Z,20.00
2022-09-23T20:43:47.503Z,19.91
2022-09-23T20:53:55.360Z,19.91
2022-09-23T21:04:01.244Z,19.78
2022-09-23T21:14:08.815Z,19.71
2022-09-23T21:34:26.486Z,19.50
2022-09-23T21:44:31.873Z,19.50
2022-09-23T21:54:38.694Z,19.41
2022-09-23T22:04:44.563Z,19.34
2022-09-23T22:14:51.616Z,19.27
2022-09-23T22:24:56.482Z,19.27
2022-09-23T22:35:03.494Z,19.22
2022-09-23T22:45:09.125Z,19.18
2022-09-23T22:55:15.634Z,19.18
2022-09-23T23:05:22.592Z,19.13
2022-09-23T23:15:30.562Z,19.05
2022-09-23T23:25:36.634Z,19.04
2022-09-23T23:35:43.746Z,19.03
2022-09-23T23:45:49.419Z,18.98
2022-09-23T23:55:55.982Z,18.95
